sensor_id;sensor_type;location;lat;lon;timestamp;temperature;humidity
9201;DHT22;4635;48.686;9.008;2022-10-16T00:01:55;14.70;30.10
9201;DHT22;4635;48.686;9.008;2022-10-16T00:04:33;14.60;56.90
9201;DHT22;4635;48.686;9.008;2022-10-16T00:07:09;14.60;82.40
9201;DHT22;4635;48.686;9.008;2022-10-16T00:09:46;14.50;99.90
9201;DHT22;4635;48.686;9.008;2022-10-16T00:12:23;14.50;99.90
9201;DHT22;4635;48.686;9.008;2022-10-16T00:15:00;14.40;99.90
9201;DHT22;4635;48.686;9.008;2022-10-16T00:17:44;14.30;99.90
9201;DHT22;4635;48.686;9.008;2022-10-16T00:20:25;14.30;99.90
9201;DHT22;4635;48.686;9.008;2022-10-16T00:23:05;14.30;99.90
9201;DHT22;4635;48.686;9.008;2022-10-16T00:25:41;14.20;99.90
9201;DHT22;4635;48.686;9.008;2022-10-16T00:28:16;14.20;99.90
9201;DHT22;4635;48.686;9.008;2022-10-16T00:30:52;14.20;99.90
9201;DHT22;4635;48.686;9.008;2022-10-16T00:33:32;14.20;99.90
9201;DHT22;4635;48.686;9.008;2022-10-16T00:36:09;14.10;99.90
9201;DHT22;4635;48.686;9.008;2022-10-16T00:38:49;14.20;99.90
9201;DHT22;4635;48.686;9.008;2022-10-16T00:41:32;14.20;99.90
9201;DHT22;4635;48.686;9.008;2022-10-16T00:47:15;14.20;99.90
9201;DHT22;4635;48.686;9.008;2022-10-16T00:50:02;14.20;99.90
9201;DHT22;4635;48.686;9.008;2022-10-16T00:52:45;14.30;99.90
9201;DHT22;4635;48.686;9.008;2022-10-16T00:55:28;14.30;99.90
9201;DHT22;4635;48.686;9.008;2022-10-16T00:58:05;14.30;99.90
9201;DHT22;4635;48.686;9.008;2022-10-16T01:00:42;14.30;99.90
9201;DHT22;4635;48.686;9.008;2022-10-16T01:03:30;14.30;99.90
9201;DHT22;4635;48.686;9.008;2022-10-16T01:06:22;14.30;99.90
9201;DHT22;4635;48.686;9.008;2022-10-16T01:09:12;14.30;99.90
9201;DHT22;4635;48.686;9.008;2022-10-16T01:12:01;14.30;99.90
9201;DHT22;4635;48.686;9.008;2022-10-16T01:14:43;14.30;90.00
9201;DHT22;4635;48.686;9.008;2022-10-16T01:17:22;14.30;99.90
9201;DHT22;4635;48.686;9.008;2022-10-16T01:20:10;14.30;99.90
9201;DHT22;4635;48.686;9.008;2022-10-16T01:23:05;14.30;99.90
9201;DHT22;4635;48.686;9.008;2022-10-16T01:26:02;14.20;99.90
9201;DHT22;4635;48.686;9.008;2022-10-16T01:28:49;14.20;89.30
9201;DHT22;4635;48.686;9.008;2022-10-16T01:31:29;14.00;99.90
9201;DHT22;4635;48.686;9.008;2022-10-16T01:34:08;14.00;99.90
9201;DHT22;4635;48.686;9.008;2022-10-16T01:36:50;14.00;99.90
9201;DHT22;4635;48.686;9.008;2022-10-16T01:39:32;14.10;99.90
9201;DHT22;4635;48.686;9.008;2022-10-16T01:42:14;14.20;99.90
9201;DHT22;4635;48.686;9.008;2022-10-16T01:44:55;14.20;99.90
9201;DHT22;4635;48.686;9.008;2022-10-16T01:47:37;14.30;99.90
9201;DHT22;4635;48.686;9.008;2022-10-16T01:50:17;14.30;99.90
9201;DHT22;4635;48.686;9.008;2022-10-16T01:52:57;14.30;99.90
9201;DHT22;4635;48.686;9.008;2022-10-16T01:55:39;14.30;99.90
9201;DHT22;4635;48.686;9.008;2022-10-16T01:58:16;14.40;99.90
9201;DHT22;4635;48.686;9.008;2022-10-16T02:00:54;14.40;99.90
9201;DHT22;4635;48.686;9.008;2022-10-16T02:03:29;14.30;99.90
9201;DHT22;4635;48.686;9.008;2022-10-16T02:06:07;14.40;99.90
9201;DHT22;4635;48.686;9.008;2022-10-16T02:08:44;14.40;99.90
9201;DHT22;4635;48.686;9.008;2022-10-16T02:11:18;14.50;99.90
9201;DHT22;4635;48.686;9.008;2022-10-16T02:13:57;14.60;90.90
9201;DHT22;4635;48.686;9.008;2022-10-16T02:16:50;14.70;99.90
9201;DHT22;4635;48.686;9.008;2022-10-16T02:19:26;14.70;12.80
9201;DHT22;4635;48.686;9.008;2022-10-16T02:22:04;14.70;1.00
9201;DHT22;4635;48.686;9.008;2022-10-16T02:24:47;14.70;18.30
9201;DHT22;4635;48.686;9.008;2022-10-16T02:27:27;14.70;99.90
9201;DHT22;4635;48.686;9.008;2022-10-16T02:30:12;14.70;3.70
9201;DHT22;4635;48.686;9.008;2022-10-16T02:32:53;14.60;1.00
9201;DHT22;4635;48.686;9.008;2022-10-16T02:35:30;14.60;99.90
9201;DHT22;4635;48.686;9.008;2022-10-16T02:38:08;14.70;1.00
9201;DHT22;4635;48.686;9.008;2022-10-16T02:40:43;14.70;33.00
9201;DHT22;4635;48.686;9.008;2022-10-16T02:43:19;14.70;1.00
9201;DHT22;4635;48.686;9.008;2022-10-16T02:45:54;14.70;1.00
9201;DHT22;4635;48.686;9.008;2022-10-16T02:48:31;14.80;1.00
9201;DHT22;4635;48.686;9.008;2022-10-16T02:51:05;14.80;1.00
9201;DHT22;4635;48.686;9.008;2022-10-16T02:53:41;14.80;1.00
9201;DHT22;4635;48.686;9.008;2022-10-16T02:56:17;14.80;1.00
9201;DHT22;4635;48.686;9.008;2022-10-16T02:58:50;14.70;1.00
9201;DHT22;4635;48.686;9.008;2022-10-16T03:01:26;14.70;1.00
9201;DHT22;4635;48.686;9.008;2022-10-16T03:04:09;14.70;99.90
9201;DHT22;4635;48.686;9.008;2022-10-16T03:06:45;14.70;1.00
9201;DHT22;4635;48.686;9.008;2022-10-16T03:09:20;14.60;1.00
9201;DHT22;4635;48.686;9.008;2022-10-16T03:11:55;14.70;1.00
9201;DHT22;4635;48.686;9.008;2022-10-16T03:14:33;14.70;1.00
9201;DHT22;4635;48.686;9.008;2022-10-16T03:17:06;14.70;71.20
9201;DHT22;4635;48.686;9.008;2022-10-16T03:19:43;14.70;30.50
9201;DHT22;4635;48.686;9.008;2022-10-16T03:22:17;14.70;1.00
9201;DHT22;4635;48.686;9.008;2022-10-16T03:24:52;14.70;1.00
9201;DHT22;4635;48.686;9.008;2022-10-16T03:27:27;14.70;1.00
9201;DHT22;4635;48.686;9.008;2022-10-16T03:30:08;14.70;16.90
9201;DHT22;4635;48.686;9.008;2022-10-16T03:32:44;14.70;1.00
9201;DHT22;4635;48.686;9.008;2022-10-16T03:35:21;14.60;1.00
9201;DHT22;4635;48.686;9.008;2022-10-16T03:37:55;14.60;5.70
9201;DHT22;4635;48.686;9.008;2022-10-16T03:40:31;14.50;1.00
9201;DHT22;4635;48.686;9.008;2022-10-16T03:43:05;14.50;1.00
9201;DHT22;4635;48.686;9.008;2022-10-16T03:45:40;14.40;1.00
9201;DHT22;4635;48.686;9.008;2022-10-16T03:48:13;14.40;26.20
9201;DHT22;4635;48.686;9.008;2022-10-16T03:51:01;14.40;38.80
9201;DHT22;4635;48.686;9.008;2022-10-16T03:53:44;14.30;99.90
9201;DHT22;4635;48.686;9.008;2022-10-16T03:56:19;14.30;16.60
9201;DHT22;4635;48.686;9.008;2022-10-16T03:58:56;14.30;99.90
9201;DHT22;4635;48.686;9.008;2022-10-16T04:01:40;14.20;73.60
9201;DHT22;4635;48.686;9.008;2022-10-16T04:04:15;14.20;99.90
9201;DHT22;4635;48.686;9.008;2022-10-16T04:06:53;14.10;99.90
9201;DHT22;4635;48.686;9.008;2022-10-16T04:09:31;14.20;99.90
9201;DHT22;4635;48.686;9.008;2022-10-16T04:12:07;14.20;99.90
9201;DHT22;4635;48.686;9.008;2022-10-16T04:14:42;14.20;99.90
9201;DHT22;4635;48.686;9.008;2022-10-16T04:17:19;14.20;99.90
9201;DHT22;4635;48.686;9.008;2022-10-16T04:19:55;14.20;99.90
9201;DHT22;4635;48.686;9.008;2022-10-16T04:22:33;14.20;38.20
9201;DHT22;4635;48.686;9.008;2022-10-16T04:25:08;14.20;99.90
9201;DHT22;4635;48.686;9.008;2022-10-16T04:27:48;14.20;99.90
9201;DHT22;4635;48.686;9.008;2022-10-16T04:30:22;14.20;99.90
9201;DHT22;4635;48.686;9.008;2022-10-16T04:32:57;14.10;99.90
9201;DHT22;4635;48.686;9.008;2022-10-16T04:35:32;14.10;99.90
9201;DHT22;4635;48.686;9.008;2022-10-16T04:38:14;14.00;99.90
9201;DHT22;4635;48.686;9.008;2022-10-16T04:41:00;14.00;99.90
9201;DHT22;4635;48.686;9.008;2022-10-16T04:43:38;14.10;99.90
9201;DHT22;4635;48.686;9.008;2022-10-16T04:46:13;14.10;99.90
9201;DHT22;4635;48.686;9.008;2022-10-16T04:48:52;14.10;99.90
9201;DHT22;4635;48.686;9.008;2022-10-16T04:51:27;14.10;99.90
9201;DHT22;4635;48.686;9.008;2022-10-16T04:54:08;14.10;99.90
9201;DHT22;4635;48.686;9.008;2022-10-16T04:56:42;14.10;99.90
9201;DHT22;4635;48.686;9.008;2022-10-16T04:59:18;14.10;99.90
9201;DHT22;4635;48.686;9.008;2022-10-16T05:01:54;14.10;99.90
9201;DHT22;4635;48.686;9.008;2022-10-16T05:04:30;14.10;99.90
9201;DHT22;4635;48.686;9.008;2022-10-16T05:07:09;14.00;99.90
9201;DHT22;4635;48.686;9.008;2022-10-16T05:09:48;14.00;99.90
9201;DHT22;4635;48.686;9.008;2022-10-16T05:12:24;14.00;99.90
9201;DHT22;4635;48.686;9.008;2022-10-16T05:15:00;13.90;99.90
9201;DHT22;4635;48.686;9.008;2022-10-16T05:17:36;13.90;99.90
9201;DHT22;4635;48.686;9.008;2022-10-16T05:20:18;13.80;99.90
9201;DHT22;4635;48.686;9.008;2022-10-16T05:22:52;13.80;99.90
9201;DHT22;4635;48.686;9.008;2022-10-16T05:25:29;14.00;99.90
9201;DHT22;4635;48.686;9.008;2022-10-16T05:28:05;14.00;99.90
9201;DHT22;4635;48.686;9.008;2022-10-16T05:30:41;14.10;99.90
9201;DHT22;4635;48.686;9.008;2022-10-16T05:33:16;14.00;99.90
9201;DHT22;4635;48.686;9.008;2022-10-16T05:36:00;13.90;35.90
9201;DHT22;4635;48.686;9.008;2022-10-16T05:38:45;13.90;99.90
9201;DHT22;4635;48.686;9.008;2022-10-16T05:41:28;13.80;99.90
9201;DHT22;4635;48.686;9.008;2022-10-16T05:44:07;13.70;99.90
9201;DHT22;4635;48.686;9.008;2022-10-16T05:46:46;13.70;99.90
9201;DHT22;4635;48.686;9.008;2022-10-16T05:49:26;13.60;99.90
9201;DHT22;4635;48.686;9.008;2022-10-16T05:52:01;13.70;99.90
9201;DHT22;4635;48.686;9.008;2022-10-16T05:54:36;13.70;99.90
9201;DHT22;4635;48.686;9.008;2022-10-16T05:57:16;13.60;99.90
9201;DHT22;4635;48.686;9.008;2022-10-16T05:59:51;13.60;99.90
9201;DHT22;4635;48.686;9.008;2022-10-16T06:02:30;13.70;99.90
9201;DHT22;4635;48.686;9.008;2022-10-16T06:05:08;13.70;99.90
9201;DHT22;4635;48.686;9.008;2022-10-16T06:07:44;13.80;99.90
9201;DHT22;4635;48.686;9.008;2022-10-16T06:10:23;13.80;99.90
9201;DHT22;4635;48.686;9.008;2022-10-16T06:13:01;13.90;99.90
9201;DHT22;4635;48.686;9.008;2022-10-16T06:15:38;13.90;99.90
9201;DHT22;4635;48.686;9.008;2022-10-16T06:18:12;13.90;99.90
9201;DHT22;4635;48.686;9.008;2022-10-16T06:20:48;14.00;99.90
9201;DHT22;4635;48.686;9.008;2022-10-16T06:23:23;14.10;99.90
9201;DHT22;4635;48.686;9.008;2022-10-16T06:26:06;14.10;99.90
9201;DHT22;4635;48.686;9.008;2022-10-16T06:28:43;14.20;99.90
9201;DHT22;4635;48.686;9.008;2022-10-16T06:31:19;14.20;99.90
9201;DHT22;4635;48.686;9.008;2022-10-16T06:33:57;14.30;99.90
9201;DHT22;4635;48.686;9.008;2022-10-16T06:36:30;14.40;99.90
9201;DHT22;4635;48.686;9.008;2022-10-16T06:39:03;14.40;88.50
9201;DHT22;4635;48.686;9.008;2022-10-16T06:41:37;14.50;99.60
9201;DHT22;4635;48.686;9.008;2022-10-16T06:44:23;14.60;99.90
9201;DHT22;4635;48.686;9.008;2022-10-16T06:46:57;14.70;99.90
9201;DHT22;4635;48.686;9.008;2022-10-16T06:49:32;14.70;34.90
9201;DHT22;4635;48.686;9.008;2022-10-16T06:52:06;14.70;99.90
9201;DHT22;4635;48.686;9.008;2022-10-16T06:54:39;14.80;92.90
9201;DHT22;4635;48.686;9.008;2022-10-16T06:57:12;14.80;99.90
9201;DHT22;4635;48.686;9.008;2022-10-16T06:59:51;14.80;99.90
9201;DHT22;4635;48.686;9.008;2022-10-16T07:02:23;14.80;97.70
9201;DHT22;4635;48.686;9.008;2022-10-16T07:05:02;14.90;95.20
9201;DHT22;4635;48.686;9.008;2022-10-16T07:07:36;15.00;1.00
9201;DHT22;4635;48.686;9.008;2022-10-16T07:10:14;15.10;1.00
9201;DHT22;4635;48.686;9.008;2022-10-16T07:12:48;15.20;1.00
9201;DHT22;4635;48.686;9.008;2022-10-16T07:15:24;15.20;1.00
9201;DHT22;4635;48.686;9.008;2022-10-16T07:17:57;15.30;1.00
9201;DHT22;4635;48.686;9.008;2022-10-16T07:20:31;15.30;1.00
9201;DHT22;4635;48.686;9.008;2022-10-16T07:23:04;15.30;1.00
9201;DHT22;4635;48.686;9.008;2022-10-16T07:25:39;15.30;1.00
9201;DHT22;4635;48.686;9.008;2022-10-16T07:28:16;15.30;1.00
9201;DHT22;4635;48.686;9.008;2022-10-16T07:30:52;15.40;1.00
9201;DHT22;4635;48.686;9.008;2022-10-16T07:33:25;15.40;1.00
9201;DHT22;4635;48.686;9.008;2022-10-16T07:35:58;15.40;1.00
9201;DHT22;4635;48.686;9.008;2022-10-16T07:38:31;15.40;1.00
9201;DHT22;4635;48.686;9.008;2022-10-16T07:41:09;15.50;1.00
9201;DHT22;4635;48.686;9.008;2022-10-16T07:43:49;15.60;1.00
9201;DHT22;4635;48.686;9.008;2022-10-16T07:46:28;15.60;1.00
9201;DHT22;4635;48.686;9.008;2022-10-16T07:49:03;15.70;1.00
9201;DHT22;4635;48.686;9.008;2022-10-16T07:51:36;15.80;99.90
9201;DHT22;4635;48.686;9.008;2022-10-16T07:54:10;15.90;1.00
9201;DHT22;4635;48.686;9.008;2022-10-16T07:56:48;15.90;1.00
9201;DHT22;4635;48.686;9.008;2022-10-16T07:59:21;15.80;99.90
9201;DHT22;4635;48.686;9.008;2022-10-16T08:01:57;15.80;64.90
9201;DHT22;4635;48.686;9.008;2022-10-16T08:04:31;15.90;99.90
9201;DHT22;4635;48.686;9.008;2022-10-16T08:07:04;16.00;99.90
9201;DHT22;4635;48.686;9.008;2022-10-16T08:09:42;16.10;1.00
9201;DHT22;4635;48.686;9.008;2022-10-16T08:12:19;16.10;1.00
9201;DHT22;4635;48.686;9.008;2022-10-16T08:14:52;16.30;1.00
9201;DHT22;4635;48.686;9.008;2022-10-16T08:17:27;16.50;99.90
9201;DHT22;4635;48.686;9.008;2022-10-16T08:19:59;16.70;99.90
9201;DHT22;4635;48.686;9.008;2022-10-16T08:22:34;17.00;1.00
9201;DHT22;4635;48.686;9.008;2022-10-16T08:25:09;17.20;1.00
9201;DHT22;4635;48.686;9.008;2022-10-16T08:27:45;17.60;99.90
9201;DHT22;4635;48.686;9.008;2022-10-16T08:30:18;17.70;99.90
9201;DHT22;4635;48.686;9.008;2022-10-16T08:32:56;17.70;22.60
9201;DHT22;4635;48.686;9.008;2022-10-16T08:35:33;17.70;1.00
9201;DHT22;4635;48.686;9.008;2022-10-16T08:38:08;17.50;99.90
9201;DHT22;4635;48.686;9.008;2022-10-16T08:40:43;17.40;1.00
9201;DHT22;4635;48.686;9.008;2022-10-16T08:43:39;17.20;1.00
9201;DHT22;4635;48.686;9.008;2022-10-16T08:46:38;17.10;99.90
9201;DHT22;4635;48.686;9.008;2022-10-16T08:49:22;17.00;99.90
9201;DHT22;4635;48.686;9.008;2022-10-16T08:52:00;17.00;99.90
9201;DHT22;4635;48.686;9.008;2022-10-16T08:54:38;17.00;1.00
9201;DHT22;4635;48.686;9.008;2022-10-16T08:57:17;17.10;1.00
9201;DHT22;4635;48.686;9.008;2022-10-16T08:59:55;17.40;1.00
9201;DHT22;4635;48.686;9.008;2022-10-16T09:02:35;17.70;1.00
9201;DHT22;4635;48.686;9.008;2022-10-16T09:05:45;18.00;99.90
9201;DHT22;4635;48.686;9.008;2022-10-16T09:08:26;18.60;1.00
9201;DHT22;4635;48.686;9.008;2022-10-16T09:11:11;19.20;99.90
9201;DHT22;4635;48.686;9.008;2022-10-16T09:13:51;19.60;99.90
9201;DHT22;4635;48.686;9.008;2022-10-16T09:16:33;20.30;99.90
9201;DHT22;4635;48.686;9.008;2022-10-16T09:19:12;21.60;90.20
9201;DHT22;4635;48.686;9.008;2022-10-16T09:21:50;23.90;49.60
9201;DHT22;4635;48.686;9.008;2022-10-16T09:24:33;26.00;32.90
9201;DHT22;4635;48.686;9.008;2022-10-16T09:27:07;27.30;17.20
9201;DHT22;4635;48.686;9.008;2022-10-16T09:29:46;26.90;17.90
9201;DHT22;4635;48.686;9.008;2022-10-16T09:32:25;26.50;16.40
9201;DHT22;4635;48.686;9.008;2022-10-16T09:34:58;25.10;24.00
9201;DHT22;4635;48.686;9.008;2022-10-16T09:37:34;23.40;35.20
9201;DHT22;4635;48.686;9.008;2022-10-16T09:40:11;22.40;45.70
9201;DHT22;4635;48.686;9.008;2022-10-16T09:42:51;21.40;58.90
9201;DHT22;4635;48.686;9.008;2022-10-16T09:45:26;21.20;66.40
9201;DHT22;4635;48.686;9.008;2022-10-16T09:48:12;21.30;64.80
9201;DHT22;4635;48.686;9.008;2022-10-16T09:50:54;21.70;61.80
9201;DHT22;4635;48.686;9.008;2022-10-16T09:53:40;22.50;52.00
9201;DHT22;4635;48.686;9.008;2022-10-16T09:56:27;22.80;50.70
9201;DHT22;4635;48.686;9.008;2022-10-16T09:59:08;23.40;44.10
9201;DHT22;4635;48.686;9.008;2022-10-16T10:01:47;23.50;42.00
9201;DHT22;4635;48.686;9.008;2022-10-16T10:04:22;24.20;38.50
9201;DHT22;4635;48.686;9.008;2022-10-16T10:06:57;26.60;22.50
9201;DHT22;4635;48.686;9.008;2022-10-16T10:09:38;28.60;7.90
9201;DHT22;4635;48.686;9.008;2022-10-16T10:12:20;29.50;1.00
9201;DHT22;4635;48.686;9.008;2022-10-16T10:14:57;31.70;1.00
9201;DHT22;4635;48.686;9.008;2022-10-16T10:17:31;32.30;1.00
9201;DHT22;4635;48.686;9.008;2022-10-16T10:20:23;30.90;1.00
9201;DHT22;4635;48.686;9.008;2022-10-16T10:23:13;28.10;1.00
9201;DHT22;4635;48.686;9.008;2022-10-16T10:25:58;26.00;1.00
9201;DHT22;4635;48.686;9.008;2022-10-16T10:28:56;24.90;1.00
9201;DHT22;4635;48.686;9.008;2022-10-16T10:31:39;24.20;7.70
9201;DHT22;4635;48.686;9.008;2022-10-16T10:34:34;23.80;12.70
9201;DHT22;4635;48.686;9.008;2022-10-16T10:37:19;23.70;17.30
9201;DHT22;4635;48.686;9.008;2022-10-16T10:40:02;23.70;20.40
9201;DHT22;4635;48.686;9.008;2022-10-16T10:42:50;23.70;19.10
9201;DHT22;4635;48.686;9.008;2022-10-16T10:45:28;23.60;18.40
9201;DHT22;4635;48.686;9.008;2022-10-16T10:48:21;24.50;16.10
9201;DHT22;4635;48.686;9.008;2022-10-16T10:51:08;24.70;13.70
9201;DHT22;4635;48.686;9.008;2022-10-16T10:53:47;23.90;16.60
9201;DHT22;4635;48.686;9.008;2022-10-16T10:56:44;23.60;19.80
9201;DHT22;4635;48.686;9.008;2022-10-16T10:59:41;23.70;19.60
9201;DHT22;4635;48.686;9.008;2022-10-16T11:02:24;24.20;19.30
9201;DHT22;4635;48.686;9.008;2022-10-16T11:08:18;24.50;18.00
9201;DHT22;4635;48.686;9.008;2022-10-16T11:10:57;24.10;19.80
9201;DHT22;4635;48.686;9.008;2022-10-16T11:13:39;24.10;20.10
9201;DHT22;4635;48.686;9.008;2022-10-16T11:16:23;23.70;21.30
9201;DHT22;4635;48.686;9.008;2022-10-16T11:19:05;23.50;25.00
9201;DHT22;4635;48.686;9.008;2022-10-16T11:21:50;23.80;24.50
9201;DHT22;4635;48.686;9.008;2022-10-16T11:24:35;24.00;24.10
9201;DHT22;4635;48.686;9.008;2022-10-16T11:27:14;23.80;23.50
9201;DHT22;4635;48.686;9.008;2022-10-16T11:30:01;23.80;23.10
9201;DHT22;4635;48.686;9.008;2022-10-16T11:33:04;23.70;23.50
9201;DHT22;4635;48.686;9.008;2022-10-16T11:35:47;23.70;24.70
9201;DHT22;4635;48.686;9.008;2022-10-16T11:38:30;23.90;24.10
9201;DHT22;4635;48.686;9.008;2022-10-16T11:41:17;23.50;24.90
9201;DHT22;4635;48.686;9.008;2022-10-16T11:44:05;23.40;26.70
9201;DHT22;4635;48.686;9.008;2022-10-16T11:46:44;23.10;28.00
9201;DHT22;4635;48.686;9.008;2022-10-16T11:49:24;23.30;28.00
9201;DHT22;4635;48.686;9.008;2022-10-16T11:52:03;23.20;27.60
9201;DHT22;4635;48.686;9.008;2022-10-16T11:54:47;23.20;28.20
9201;DHT22;4635;48.686;9.008;2022-10-16T11:57:26;23.10;28.60
9201;DHT22;4635;48.686;9.008;2022-10-16T12:00:10;23.10;28.70
9201;DHT22;4635;48.686;9.008;2022-10-16T12:03:05;23.30;28.90
9201;DHT22;4635;48.686;9.008;2022-10-16T12:06:09;23.50;26.40
9201;DHT22;4635;48.686;9.008;2022-10-16T12:08:53;23.60;25.60
9201;DHT22;4635;48.686;9.008;2022-10-16T12:11:36;24.10;25.40
9201;DHT22;4635;48.686;9.008;2022-10-16T12:14:35;25.80;15.50
9201;DHT22;4635;48.686;9.008;2022-10-16T12:17:26;26.20;11.40
9201;DHT22;4635;48.686;9.008;2022-10-16T12:20:26;26.40;8.50
9201;DHT22;4635;48.686;9.008;2022-10-16T12:23:07;27.10;4.20
9201;DHT22;4635;48.686;9.008;2022-10-16T12:26:00;27.00;4.20
9201;DHT22;4635;48.686;9.008;2022-10-16T12:28:35;27.90;1.00
9201;DHT22;4635;48.686;9.008;2022-10-16T12:31:10;29.30;1.00
9201;DHT22;4635;48.686;9.008;2022-10-16T12:33:51;31.00;1.00
9201;DHT22;4635;48.686;9.008;2022-10-16T12:36:30;31.70;1.00
9201;DHT22;4635;48.686;9.008;2022-10-16T12:39:30;33.30;1.00
9201;DHT22;4635;48.686;9.008;2022-10-16T12:42:23;32.20;1.00
9201;DHT22;4635;48.686;9.008;2022-10-16T12:45:25;30.00;1.00
9201;DHT22;4635;48.686;9.008;2022-10-16T12:48:01;28.10;1.00
9201;DHT22;4635;48.686;9.008;2022-10-16T12:50:43;26.60;1.00
9201;DHT22;4635;48.686;9.008;2022-10-16T12:53:22;25.70;1.00
9201;DHT22;4635;48.686;9.008;2022-10-16T12:56:15;24.90;1.00
9201;DHT22;4635;48.686;9.008;2022-10-16T12:59:04;24.30;1.00
9201;DHT22;4635;48.686;9.008;2022-10-16T13:01:56;24.00;1.00
9201;DHT22;4635;48.686;9.008;2022-10-16T13:04:48;23.90;1.00
9201;DHT22;4635;48.686;9.008;2022-10-16T13:07:40;24.10;1.00
9201;DHT22;4635;48.686;9.008;2022-10-16T13:10:23;24.10;4.30
9201;DHT22;4635;48.686;9.008;2022-10-16T13:13:33;24.30;3.60
9201;DHT22;4635;48.686;9.008;2022-10-16T13:16:19;24.30;3.00
9201;DHT22;4635;48.686;9.008;2022-10-16T13:19:14;24.20;4.50
9201;DHT22;4635;48.686;9.008;2022-10-16T13:21:56;24.70;3.80
9201;DHT22;4635;48.686;9.008;2022-10-16T13:24:46;25.60;1.00
9201;DHT22;4635;48.686;9.008;2022-10-16T13:27:27;27.00;1.00
9201;DHT22;4635;48.686;9.008;2022-10-16T13:30:13;28.60;1.00
9201;DHT22;4635;48.686;9.008;2022-10-16T13:33:01;29.80;1.00
9201;DHT22;4635;48.686;9.008;2022-10-16T13:35:50;29.30;1.00
9201;DHT22;4635;48.686;9.008;2022-10-16T13:38:28;29.90;1.00
9201;DHT22;4635;48.686;9.008;2022-10-16T13:41:05;30.20;1.00
9201;DHT22;4635;48.686;9.008;2022-10-16T13:43:41;30.20;1.00
9201;DHT22;4635;48.686;9.008;2022-10-16T13:46:43;29.10;1.00
9201;DHT22;4635;48.686;9.008;2022-10-16T13:49:19;27.60;1.00
9201;DHT22;4635;48.686;9.008;2022-10-16T13:51:58;26.50;1.00
9201;DHT22;4635;48.686;9.008;2022-10-16T13:54:34;25.60;1.00
9201;DHT22;4635;48.686;9.008;2022-10-16T13:57:14;25.00;1.00
9201;DHT22;4635;48.686;9.008;2022-10-16T13:59:51;24.50;1.00
9201;DHT22;4635;48.686;9.008;2022-10-16T14:02:35;24.00;1.00
9201;DHT22;4635;48.686;9.008;2022-10-16T14:05:16;23.50;2.70
9201;DHT22;4635;48.686;9.008;2022-10-16T14:07:52;23.10;9.00
9201;DHT22;4635;48.686;9.008;2022-10-16T14:10:28;23.00;14.00
9201;DHT22;4635;48.686;9.008;2022-10-16T14:13:02;22.90;15.10
9201;DHT22;4635;48.686;9.008;2022-10-16T14:15:37;22.90;17.00
9201;DHT22;4635;48.686;9.008;2022-10-16T14:18:20;22.70;19.50
9201;DHT22;4635;48.686;9.008;2022-10-16T14:21:05;22.60;21.10
9201;DHT22;4635;48.686;9.008;2022-10-16T14:23:39;22.60;24.00
9201;DHT22;4635;48.686;9.008;2022-10-16T14:26:17;22.60;23.60
9201;DHT22;4635;48.686;9.008;2022-10-16T14:29:13;22.70;23.30
9201;DHT22;4635;48.686;9.008;2022-10-16T14:32:00;22.80;23.20
9201;DHT22;4635;48.686;9.008;2022-10-16T14:34:37;22.60;24.50
9201;DHT22;4635;48.686;9.008;2022-10-16T14:37:23;22.60;26.60
9201;DHT22;4635;48.686;9.008;2022-10-16T14:40:02;22.40;27.80
9201;DHT22;4635;48.686;9.008;2022-10-16T14:42:36;22.60;27.20
9201;DHT22;4635;48.686;9.008;2022-10-16T14:45:13;23.00;25.20
9201;DHT22;4635;48.686;9.008;2022-10-16T14:47:50;23.30;22.80
9201;DHT22;4635;48.686;9.008;2022-10-16T14:50:33;23.20;23.10
9201;DHT22;4635;48.686;9.008;2022-10-16T14:53:10;22.90;25.00
9201;DHT22;4635;48.686;9.008;2022-10-16T14:55:49;22.60;25.50
9201;DHT22;4635;48.686;9.008;2022-10-16T14:58:25;22.30;30.70
9201;DHT22;4635;48.686;9.008;2022-10-16T15:01:02;21.90;33.50
9201;DHT22;4635;48.686;9.008;2022-10-16T15:03:43;21.70;37.10
9201;DHT22;4635;48.686;9.008;2022-10-16T15:06:28;21.60;41.90
9201;DHT22;4635;48.686;9.008;2022-10-16T15:09:01;21.50;44.20
9201;DHT22;4635;48.686;9.008;2022-10-16T15:11:35;21.40;47.90
9201;DHT22;4635;48.686;9.008;2022-10-16T15:14:11;21.30;52.70
9201;DHT22;4635;48.686;9.008;2022-10-16T15:16:51;21.20;53.60
9201;DHT22;4635;48.686;9.008;2022-10-16T15:19:30;21.10;54.60
9201;DHT22;4635;48.686;9.008;2022-10-16T15:22:09;21.00;59.50
9201;DHT22;4635;48.686;9.008;2022-10-16T15:24:42;21.00;58.30
9201;DHT22;4635;48.686;9.008;2022-10-16T15:27:15;20.90;57.90
9201;DHT22;4635;48.686;9.008;2022-10-16T15:29:49;20.90;58.00
9201;DHT22;4635;48.686;9.008;2022-10-16T15:32:31;20.90;58.60
9201;DHT22;4635;48.686;9.008;2022-10-16T15:35:11;20.80;59.00
9201;DHT22;4635;48.686;9.008;2022-10-16T15:37:57;20.80;63.60
9201;DHT22;4635;48.686;9.008;2022-10-16T15:40:34;20.70;69.00
9201;DHT22;4635;48.686;9.008;2022-10-16T15:43:14;20.60;70.10
9201;DHT22;4635;48.686;9.008;2022-10-16T15:45:59;20.50;77.60
9201;DHT22;4635;48.686;9.008;2022-10-16T15:48:34;20.30;81.70
9201;DHT22;4635;48.686;9.008;2022-10-16T15:51:09;20.10;84.20
9201;DHT22;4635;48.686;9.008;2022-10-16T15:53:47;20.20;87.60
9201;DHT22;4635;48.686;9.008;2022-10-16T15:56:26;20.20;90.40
9201;DHT22;4635;48.686;9.008;2022-10-16T15:59:09;20.20;92.30
9201;DHT22;4635;48.686;9.008;2022-10-16T16:01:46;20.10;93.40
9201;DHT22;4635;48.686;9.008;2022-10-16T16:04:22;20.00;93.10
9201;DHT22;4635;48.686;9.008;2022-10-16T16:06:56;20.00;93.30
9201;DHT22;4635;48.686;9.008;2022-10-16T16:09:32;19.80;95.70
9201;DHT22;4635;48.686;9.008;2022-10-16T16:12:10;19.70;99.20
9201;DHT22;4635;48.686;9.008;2022-10-16T16:14:46;19.50;99.90
9201;DHT22;4635;48.686;9.008;2022-10-16T16:17:19;19.30;99.90
9201;DHT22;4635;48.686;9.008;2022-10-16T16:19:57;19.10;99.90
9201;DHT22;4635;48.686;9.008;2022-10-16T16:22:29;18.90;99.90
9201;DHT22;4635;48.686;9.008;2022-10-16T16:25:08;19.00;99.90
9201;DHT22;4635;48.686;9.008;2022-10-16T16:27:42;19.00;99.90
9201;DHT22;4635;48.686;9.008;2022-10-16T16:30:16;19.00;99.90
9201;DHT22;4635;48.686;9.008;2022-10-16T16:32:58;19.00;99.90
9201;DHT22;4635;48.686;9.008;2022-10-16T16:35:33;18.90;18.80
9201;DHT22;4635;48.686;9.008;2022-10-16T16:38:08;18.90;1.00
9201;DHT22;4635;48.686;9.008;2022-10-16T16:40:46;18.80;1.00
9201;DHT22;4635;48.686;9.008;2022-10-16T16:43:17;18.60;99.90
9201;DHT22;4635;48.686;9.008;2022-10-16T16:45:51;18.50;99.90
9201;DHT22;4635;48.686;9.008;2022-10-16T16:48:41;18.40;27.90
9201;DHT22;4635;48.686;9.008;2022-10-16T16:51:15;18.30;1.00
9201;DHT22;4635;48.686;9.008;2022-10-16T16:53:49;18.20;1.00
9201;DHT22;4635;48.686;9.008;2022-10-16T16:56:32;18.10;1.00
9201;DHT22;4635;48.686;9.008;2022-10-16T16:59:10;18.00;1.00
9201;DHT22;4635;48.686;9.008;2022-10-16T17:01:49;18.00;99.90
9201;DHT22;4635;48.686;9.008;2022-10-16T17:04:31;17.70;99.90
9201;DHT22;4635;48.686;9.008;2022-10-16T17:07:06;17.60;1.00
9201;DHT22;4635;48.686;9.008;2022-10-16T17:09:42;17.50;1.00
9201;DHT22;4635;48.686;9.008;2022-10-16T17:12:24;17.40;99.90
9201;DHT22;4635;48.686;9.008;2022-10-16T17:14:59;17.30;99.90
9201;DHT22;4635;48.686;9.008;2022-10-16T17:17:34;17.30;99.90
9201;DHT22;4635;48.686;9.008;2022-10-16T17:20:09;17.20;99.90
9201;DHT22;4635;48.686;9.008;2022-10-16T17:22:48;17.20;99.90
9201;DHT22;4635;48.686;9.008;2022-10-16T17:25:21;17.10;99.90
9201;DHT22;4635;48.686;9.008;2022-10-16T17:28:01;17.10;99.90
9201;DHT22;4635;48.686;9.008;2022-10-16T17:30:40;17.00;1.00
9201;DHT22;4635;48.686;9.008;2022-10-16T17:33:28;16.90;1.00
9201;DHT22;4635;48.686;9.008;2022-10-16T17:36:01;16.80;1.00